Burley Municipal Airport Burley US
ICAO: KBYI
IATA: BYI
Category: Medium
Scheduled Services: No

Elevation: 4150 ft
TransAlt. 18000 ft.

Airport Communications:
TWIN FALLS APP/DEP:126.7
ASOS:135.575
SALT LAKE CITY CNTR:118.05
CTAF:122.9
BOISE RDO:122.05

KBYI Zoom In..

If you have problems with the map follow the link
https://www.worldairports.se/pages/airport.php?
ICAO=KBYI

Runways:

(A) RW 02 length 4092 ft width 80 ft
---- / hdg 22

(B) RW 06 length 4072 ft width 75 ft
---- / hdg 64

(C) RW 20 length 4092 ft width 80 ft
---- / hdg 202

(D) RW 24 length 4072 ft width 75 ft
---- / hdg 244

Location; KBYI
Day. 20 / Time. 21.27 Zulu
* Altimeter: 29.62
* Temperature: -02° c. -28.4°f.
* Wind from: 250° Speed 03 kn.
Dewpoint: -05° c.
Visibility: 9 Statute Miles.
Clouds: Broken 1100 ft.
Clouds: Broken 3000 ft.
Clouds: Overcast 4100 ft.
Conditions: Light Snow.

KBYI 202127Z AUTO 25003KT 9SM -SN BKN011 BKN030 OVC041 M02/M05 A2962 RMK AO2 P0000 T10171050


Wind From 250°
Speed 03 kn.

 
 
jpsmedia.com for Web Design worldairports.se 2019   terms of use